sensor_id;sensor_type;location;lat;lon;timestamp;temperature;humidity
55135;DHT22;41031;44.750;11.308;2023-04-24T00:01:59;16.70;70.70
55135;DHT22;41031;44.750;11.308;2023-04-24T00:04:27;16.70;71.20
55135;DHT22;41031;44.750;11.308;2023-04-24T00:06:55;16.80;71.70
55135;DHT22;41031;44.750;11.308;2023-04-24T00:09:24;16.70;71.80
55135;DHT22;41031;44.750;11.308;2023-04-24T00:11:51;16.70;72.40
55135;DHT22;41031;44.750;11.308;2023-04-24T00:14:19;16.70;72.50
55135;DHT22;41031;44.750;11.308;2023-04-24T00:16:46;16.70;72.70
55135;DHT22;41031;44.750;11.308;2023-04-24T00:19:13;16.60;72.40
55135;DHT22;41031;44.750;11.308;2023-04-24T00:21:40;16.60;72.40
55135;DHT22;41031;44.750;11.308;2023-04-24T00:24:08;16.50;72.30
55135;DHT22;41031;44.750;11.308;2023-04-24T00:26:35;16.50;72.70
55135;DHT22;41031;44.750;11.308;2023-04-24T00:29:02;16.50;73.20
55135;DHT22;41031;44.750;11.308;2023-04-24T00:31:29;16.50;73.40
55135;DHT22;41031;44.750;11.308;2023-04-24T00:33:57;16.50;72.90
55135;DHT22;41031;44.750;11.308;2023-04-24T00:36:24;16.40;73.40
55135;DHT22;41031;44.750;11.308;2023-04-24T00:38:52;16.40;74.30
55135;DHT22;41031;44.750;11.308;2023-04-24T00:41:19;16.40;75.20
55135;DHT22;41031;44.750;11.308;2023-04-24T00:43:46;16.40;75.80
55135;DHT22;41031;44.750;11.308;2023-04-24T00:46:14;16.40;76.30
55135;DHT22;41031;44.750;11.308;2023-04-24T00:48:41;16.40;76.80
55135;DHT22;41031;44.750;11.308;2023-04-24T00:51:08;16.40;77.10
55135;DHT22;41031;44.750;11.308;2023-04-24T00:53:35;16.30;76.80
55135;DHT22;41031;44.750;11.308;2023-04-24T00:56:02;16.30;76.60
55135;DHT22;41031;44.750;11.308;2023-04-24T00:58:29;16.30;76.60
55135;DHT22;41031;44.750;11.308;2023-04-24T01:00:58;16.30;76.80
55135;DHT22;41031;44.750;11.308;2023-04-24T01:03:31;16.30;77.10
55135;DHT22;41031;44.750;11.308;2023-04-24T01:05:59;16.20;77.70
55135;DHT22;41031;44.750;11.308;2023-04-24T01:08:26;16.20;78.40
55135;DHT22;41031;44.750;11.308;2023-04-24T01:10:57;16.20;77.70
55135;DHT22;41031;44.750;11.308;2023-04-24T01:13:24;16.20;77.70
55135;DHT22;41031;44.750;11.308;2023-04-24T01:15:51;16.20;77.80
55135;DHT22;41031;44.750;11.308;2023-04-24T01:18:18;16.20;78.00
55135;DHT22;41031;44.750;11.308;2023-04-24T01:20:45;16.20;77.30
55135;DHT22;41031;44.750;11.308;2023-04-24T01:23:13;16.30;76.30
55135;DHT22;41031;44.750;11.308;2023-04-24T01:25:40;16.30;75.90
55135;DHT22;41031;44.750;11.308;2023-04-24T01:28:08;16.30;76.20
55135;DHT22;41031;44.750;11.308;2023-04-24T01:30:35;16.30;76.30
55135;DHT22;41031;44.750;11.308;2023-04-24T01:33:02;16.40;76.30
55135;DHT22;41031;44.750;11.308;2023-04-24T01:35:29;16.50;75.80
55135;DHT22;41031;44.750;11.308;2023-04-24T01:37:56;16.50;75.40
55135;DHT22;41031;44.750;11.308;2023-04-24T01:40:24;16.50;76.20
55135;DHT22;41031;44.750;11.308;2023-04-24T01:42:51;16.50;77.10
55135;DHT22;41031;44.750;11.308;2023-04-24T01:45:18;16.50;77.60
55135;DHT22;41031;44.750;11.308;2023-04-24T01:47:45;16.60;78.30
55135;DHT22;41031;44.750;11.308;2023-04-24T01:50:13;16.60;78.80
55135;DHT22;41031;44.750;11.308;2023-04-24T01:52:40;16.60;79.10
55135;DHT22;41031;44.750;11.308;2023-04-24T01:55:09;16.50;79.10
55135;DHT22;41031;44.750;11.308;2023-04-24T01:57:37;16.50;79.30
55135;DHT22;41031;44.750;11.308;2023-04-24T02:00:05;16.50;79.80
55135;DHT22;41031;44.750;11.308;2023-04-24T02:02:40;16.40;80.20
55135;DHT22;41031;44.750;11.308;2023-04-24T02:05:10;16.50;80.80
55135;DHT22;41031;44.750;11.308;2023-04-24T02:07:37;16.40;81.20
55135;DHT22;41031;44.750;11.308;2023-04-24T02:10:05;16.40;81.60
55135;DHT22;41031;44.750;11.308;2023-04-24T02:12:32;16.40;81.60
55135;DHT22;41031;44.750;11.308;2023-04-24T02:14:59;16.40;81.80
55135;DHT22;41031;44.750;11.308;2023-04-24T02:17:26;16.40;82.20
55135;DHT22;41031;44.750;11.308;2023-04-24T02:19:53;16.30;82.30
55135;DHT22;41031;44.750;11.308;2023-04-24T02:22:20;16.30;82.30
55135;DHT22;41031;44.750;11.308;2023-04-24T02:24:47;16.20;82.50
55135;DHT22;41031;44.750;11.308;2023-04-24T02:27:15;16.30;83.00
55135;DHT22;41031;44.750;11.308;2023-04-24T02:29:42;16.30;83.20
55135;DHT22;41031;44.750;11.308;2023-04-24T02:32:09;16.20;83.20
55135;DHT22;41031;44.750;11.308;2023-04-24T02:34:39;16.30;83.00
55135;DHT22;41031;44.750;11.308;2023-04-24T02:37:06;16.20;83.00
55135;DHT22;41031;44.750;11.308;2023-04-24T02:39:33;16.20;83.80
55135;DHT22;41031;44.750;11.308;2023-04-24T02:42:00;16.20;84.50
55135;DHT22;41031;44.750;11.308;2023-04-24T02:44:29;16.20;85.00
55135;DHT22;41031;44.750;11.308;2023-04-24T02:46:56;16.20;85.20
55135;DHT22;41031;44.750;11.308;2023-04-24T02:49:23;16.10;85.50
55135;DHT22;41031;44.750;11.308;2023-04-24T02:51:50;16.10;85.90
55135;DHT22;41031;44.750;11.308;2023-04-24T02:54:17;16.10;86.50
55135;DHT22;41031;44.750;11.308;2023-04-24T02:56:44;16.00;87.00
55135;DHT22;41031;44.750;11.308;2023-04-24T02:59:11;16.00;86.80
55135;DHT22;41031;44.750;11.308;2023-04-24T03:01:38;15.90;86.80
55135;DHT22;41031;44.750;11.308;2023-04-24T03:04:05;15.90;87.30
55135;DHT22;41031;44.750;11.308;2023-04-24T03:06:33;15.80;87.80
55135;DHT22;41031;44.750;11.308;2023-04-24T03:09:02;15.80;88.10
55135;DHT22;41031;44.750;11.308;2023-04-24T03:11:31;15.90;88.40
55135;DHT22;41031;44.750;11.308;2023-04-24T03:13:58;15.90;88.40
55135;DHT22;41031;44.750;11.308;2023-04-24T03:16:25;15.80;88.00
55135;DHT22;41031;44.750;11.308;2023-04-24T03:18:54;15.80;88.00
55135;DHT22;41031;44.750;11.308;2023-04-24T03:21:24;15.80;88.20
55135;DHT22;41031;44.750;11.308;2023-04-24T03:23:51;15.70;88.60
55135;DHT22;41031;44.750;11.308;2023-04-24T03:26:18;15.70;88.80
55135;DHT22;41031;44.750;11.308;2023-04-24T03:28:59;15.70;89.00
55135;DHT22;41031;44.750;11.308;2023-04-24T03:31:27;15.70;89.10
55135;DHT22;41031;44.750;11.308;2023-04-24T03:33:54;15.70;89.30
55135;DHT22;41031;44.750;11.308;2023-04-24T03:36:21;15.70;89.50
55135;DHT22;41031;44.750;11.308;2023-04-24T03:38:48;15.60;89.60
55135;DHT22;41031;44.750;11.308;2023-04-24T03:41:41;15.60;89.80
55135;DHT22;41031;44.750;11.308;2023-04-24T03:44:18;15.60;89.90
55135;DHT22;41031;44.750;11.308;2023-04-24T03:46:45;15.60;90.40
55135;DHT22;41031;44.750;11.308;2023-04-24T03:49:12;15.60;90.20
55135;DHT22;41031;44.750;11.308;2023-04-24T03:51:42;15.60;90.30
55135;DHT22;41031;44.750;11.308;2023-04-24T03:54:16;15.60;90.80
55135;DHT22;41031;44.750;11.308;2023-04-24T03:56:45;15.50;90.90
55135;DHT22;41031;44.750;11.308;2023-04-24T03:59:12;15.50;91.10
55135;DHT22;41031;44.750;11.308;2023-04-24T04:01:42;15.40;91.30
55135;DHT22;41031;44.750;11.308;2023-04-24T04:04:16;15.30;91.60
55135;DHT22;41031;44.750;11.308;2023-04-24T04:06:44;15.30;91.90
55135;DHT22;41031;44.750;11.308;2023-04-24T04:09:13;15.30;91.90
55135;DHT22;41031;44.750;11.308;2023-04-24T04:11:41;15.20;91.90
55135;DHT22;41031;44.750;11.308;2023-04-24T04:14:07;15.20;92.40
55135;DHT22;41031;44.750;11.308;2023-04-24T04:16:39;15.30;92.50
55135;DHT22;41031;44.750;11.308;2023-04-24T04:19:07;15.30;92.50
55135;DHT22;41031;44.750;11.308;2023-04-24T04:21:34;15.30;92.70
55135;DHT22;41031;44.750;11.308;2023-04-24T04:24:11;15.30;92.80
55135;DHT22;41031;44.750;11.308;2023-04-24T04:26:43;15.30;92.90
55135;DHT22;41031;44.750;11.308;2023-04-24T04:29:27;15.30;93.10
55135;DHT22;41031;44.750;11.308;2023-04-24T04:31:55;15.40;93.30
55135;DHT22;41031;44.750;11.308;2023-04-24T04:34:22;15.40;93.40
55135;DHT22;41031;44.750;11.308;2023-04-24T04:36:50;15.50;93.50
55135;DHT22;41031;44.750;11.308;2023-04-24T04:39:49;15.50;93.60
55135;DHT22;41031;44.750;11.308;2023-04-24T04:42:20;15.50;93.70
55135;DHT22;41031;44.750;11.308;2023-04-24T04:44:49;15.50;93.80
55135;DHT22;41031;44.750;11.308;2023-04-24T04:47:25;15.60;93.90
55135;DHT22;41031;44.750;11.308;2023-04-24T04:49:55;15.50;94.00
55135;DHT22;41031;44.750;11.308;2023-04-24T04:52:25;15.60;94.10
55135;DHT22;41031;44.750;11.308;2023-04-24T04:55:21;15.60;94.10
55135;DHT22;41031;44.750;11.308;2023-04-24T04:58:08;15.70;94.20
55135;DHT22;41031;44.750;11.308;2023-04-24T05:00:36;15.70;94.20
55135;DHT22;41031;44.750;11.308;2023-04-24T05:03:23;15.70;94.30
55135;DHT22;41031;44.750;11.308;2023-04-24T05:05:59;15.80;94.40
55135;DHT22;41031;44.750;11.308;2023-04-24T05:08:29;15.80;94.50
55135;DHT22;41031;44.750;11.308;2023-04-24T05:10:56;15.90;94.60
55135;DHT22;41031;44.750;11.308;2023-04-24T05:13:25;15.90;94.70
55135;DHT22;41031;44.750;11.308;2023-04-24T05:16:14;15.90;94.70
55135;DHT22;41031;44.750;11.308;2023-04-24T05:18:42;16.00;94.70
55135;DHT22;41031;44.750;11.308;2023-04-24T05:21:12;16.00;94.70
55135;DHT22;41031;44.750;11.308;2023-04-24T05:23:42;16.00;94.70
55135;DHT22;41031;44.750;11.308;2023-04-24T05:26:13;16.10;94.70
55135;DHT22;41031;44.750;11.308;2023-04-24T05:28:41;16.10;94.70
55135;DHT22;41031;44.750;11.308;2023-04-24T05:31:11;16.10;94.70
55135;DHT22;41031;44.750;11.308;2023-04-24T05:33:39;16.10;94.90
55135;DHT22;41031;44.750;11.308;2023-04-24T05:36:06;16.10;94.90
55135;DHT22;41031;44.750;11.308;2023-04-24T05:38:33;16.10;94.90
55135;DHT22;41031;44.750;11.308;2023-04-24T05:41:00;16.10;94.80
55135;DHT22;41031;44.750;11.308;2023-04-24T05:43:28;16.10;94.80
55135;DHT22;41031;44.750;11.308;2023-04-24T05:45:55;16.20;94.90
55135;DHT22;41031;44.750;11.308;2023-04-24T05:48:22;16.20;95.00
55135;DHT22;41031;44.750;11.308;2023-04-24T05:50:49;16.20;95.00
55135;DHT22;41031;44.750;11.308;2023-04-24T05:53:16;16.20;95.00
55135;DHT22;41031;44.750;11.308;2023-04-24T05:55:44;16.20;95.00
55135;DHT22;41031;44.750;11.308;2023-04-24T05:58:12;16.20;95.00
55135;DHT22;41031;44.750;11.308;2023-04-24T06:00:39;16.20;95.00
55135;DHT22;41031;44.750;11.308;2023-04-24T06:03:11;16.20;95.00
55135;DHT22;41031;44.750;11.308;2023-04-24T06:05:38;16.20;95.00
55135;DHT22;41031;44.750;11.308;2023-04-24T06:08:06;16.20;94.90
55135;DHT22;41031;44.750;11.308;2023-04-24T06:10:37;16.20;94.90
55135;DHT22;41031;44.750;11.308;2023-04-24T06:13:05;16.30;95.00
55135;DHT22;41031;44.750;11.308;2023-04-24T06:15:35;16.30;95.00
55135;DHT22;41031;44.750;11.308;2023-04-24T06:18:06;16.30;95.00
55135;DHT22;41031;44.750;11.308;2023-04-24T06:20:33;16.40;95.30
55135;DHT22;41031;44.750;11.308;2023-04-24T06:23:01;16.40;94.90
55135;DHT22;41031;44.750;11.308;2023-04-24T06:25:28;16.40;94.80
55135;DHT22;41031;44.750;11.308;2023-04-24T06:27:56;16.50;94.80
55135;DHT22;41031;44.750;11.308;2023-04-24T06:30:23;16.60;94.80
55135;DHT22;41031;44.750;11.308;2023-04-24T06:32:50;16.60;94.80
55135;DHT22;41031;44.750;11.308;2023-04-24T06:35:17;16.70;94.70
55135;DHT22;41031;44.750;11.308;2023-04-24T06:37:46;16.70;94.60
55135;DHT22;41031;44.750;11.308;2023-04-24T06:40:13;16.80;94.50
55135;DHT22;41031;44.750;11.308;2023-04-24T06:42:40;16.80;94.40
55135;DHT22;41031;44.750;11.308;2023-04-24T06:45:08;16.90;94.30
55135;DHT22;41031;44.750;11.308;2023-04-24T06:47:35;17.00;94.30
55135;DHT22;41031;44.750;11.308;2023-04-24T06:50:02;17.00;94.30
55135;DHT22;41031;44.750;11.308;2023-04-24T06:52:29;17.10;94.30
55135;DHT22;41031;44.750;11.308;2023-04-24T06:55:03;17.20;94.30
55135;DHT22;41031;44.750;11.308;2023-04-24T06:57:31;17.30;94.20
55135;DHT22;41031;44.750;11.308;2023-04-24T06:59:58;17.40;94.10
55135;DHT22;41031;44.750;11.308;2023-04-24T07:02:25;17.50;93.90
55135;DHT22;41031;44.750;11.308;2023-04-24T07:04:52;17.60;93.80
55135;DHT22;41031;44.750;11.308;2023-04-24T07:07:19;17.60;93.60
55135;DHT22;41031;44.750;11.308;2023-04-24T07:09:50;17.70;93.40
55135;DHT22;41031;44.750;11.308;2023-04-24T07:12:17;17.70;93.20
55135;DHT22;41031;44.750;11.308;2023-04-24T07:14:47;17.70;93.20
55135;DHT22;41031;44.750;11.308;2023-04-24T07:17:14;17.70;93.10
55135;DHT22;41031;44.750;11.308;2023-04-24T07:19:41;17.70;93.10
55135;DHT22;41031;44.750;11.308;2023-04-24T07:22:09;17.80;93.20
55135;DHT22;41031;44.750;11.308;2023-04-24T07:24:38;17.90;93.30
55135;DHT22;41031;44.750;11.308;2023-04-24T07:27:05;18.10;93.20
55135;DHT22;41031;44.750;11.308;2023-04-24T07:29:32;18.20;93.00
55135;DHT22;41031;44.750;11.308;2023-04-24T07:31:59;18.30;92.80
55135;DHT22;41031;44.750;11.308;2023-04-24T07:34:29;18.40;92.70
55135;DHT22;41031;44.750;11.308;2023-04-24T07:36:57;18.60;92.60
55135;DHT22;41031;44.750;11.308;2023-04-24T07:39:24;18.70;92.30
55135;DHT22;41031;44.750;11.308;2023-04-24T07:41:51;19.00;92.10
55135;DHT22;41031;44.750;11.308;2023-04-24T07:44:18;19.10;91.70
55135;DHT22;41031;44.750;11.308;2023-04-24T07:46:45;19.20;91.40
55135;DHT22;41031;44.750;11.308;2023-04-24T07:49:12;19.20;90.90
55135;DHT22;41031;44.750;11.308;2023-04-24T07:51:41;19.30;90.50
55135;DHT22;41031;44.750;11.308;2023-04-24T07:54:08;19.30;90.30
55135;DHT22;41031;44.750;11.308;2023-04-24T07:56:36;19.30;90.20
55135;DHT22;41031;44.750;11.308;2023-04-24T07:59:06;19.40;90.20
55135;DHT22;41031;44.750;11.308;2023-04-24T08:01:33;19.40;90.20
55135;DHT22;41031;44.750;11.308;2023-04-24T08:04:00;19.40;90.10
55135;DHT22;41031;44.750;11.308;2023-04-24T08:06:27;19.40;90.10
55135;DHT22;41031;44.750;11.308;2023-04-24T08:08:58;19.50;90.10
55135;DHT22;41031;44.750;11.308;2023-04-24T08:11:25;19.50;90.00
55135;DHT22;41031;44.750;11.308;2023-04-24T08:13:52;19.50;89.90
55135;DHT22;41031;44.750;11.308;2023-04-24T08:16:19;19.50;89.80
55135;DHT22;41031;44.750;11.308;2023-04-24T08:18:46;19.40;88.10
55135;DHT22;41031;44.750;11.308;2023-04-24T08:21:13;19.30;87.60
55135;DHT22;41031;44.750;11.308;2023-04-24T08:23:44;19.20;87.20
55135;DHT22;41031;44.750;11.308;2023-04-24T08:26:12;19.00;84.60
55135;DHT22;41031;44.750;11.308;2023-04-24T08:28:39;18.80;84.60
55135;DHT22;41031;44.750;11.308;2023-04-24T08:31:06;18.70;85.30
55135;DHT22;41031;44.750;11.308;2023-04-24T08:33:33;18.50;85.70
55135;DHT22;41031;44.750;11.308;2023-04-24T08:36:05;18.40;85.90
55135;DHT22;41031;44.750;11.308;2023-04-24T08:38:33;18.30;86.70
55135;DHT22;41031;44.750;11.308;2023-04-24T08:41:01;18.30;87.50
55135;DHT22;41031;44.750;11.308;2023-04-24T08:43:28;18.30;88.50
55135;DHT22;41031;44.750;11.308;2023-04-24T08:45:56;18.30;88.00
55135;DHT22;41031;44.750;11.308;2023-04-24T08:48:24;18.30;88.30
55135;DHT22;41031;44.750;11.308;2023-04-24T08:50:59;18.30;88.50
55135;DHT22;41031;44.750;11.308;2023-04-24T08:53:26;18.30;88.90
55135;DHT22;41031;44.750;11.308;2023-04-24T08:55:55;18.40;89.10
55135;DHT22;41031;44.750;11.308;2023-04-24T08:58:25;18.40;88.10
55135;DHT22;41031;44.750;11.308;2023-04-24T09:00:56;18.30;88.40
55135;DHT22;41031;44.750;11.308;2023-04-24T09:03:24;18.20;88.50
55135;DHT22;41031;44.750;11.308;2023-04-24T09:05:54;18.10;88.40
55135;DHT22;41031;44.750;11.308;2023-04-24T09:08:24;18.00;89.40
55135;DHT22;41031;44.750;11.308;2023-04-24T09:10:52;17.80;90.40
55135;DHT22;41031;44.750;11.308;2023-04-24T09:13:22;17.60;90.80
55135;DHT22;41031;44.750;11.308;2023-04-24T09:15:50;17.30;91.20
55135;DHT22;41031;44.750;11.308;2023-04-24T09:18:18;17.20;91.70
55135;DHT22;41031;44.750;11.308;2023-04-24T09:21:03;17.10;92.10
55135;DHT22;41031;44.750;11.308;2023-04-24T09:23:32;17.00;92.40
55135;DHT22;41031;44.750;11.308;2023-04-24T09:26:00;17.00;92.60
55135;DHT22;41031;44.750;11.308;2023-04-24T09:28:32;16.90;92.80
55135;DHT22;41031;44.750;11.308;2023-04-24T09:31:13;16.90;93.00
55135;DHT22;41031;44.750;11.308;2023-04-24T09:33:55;16.80;93.40
55135;DHT22;41031;44.750;11.308;2023-04-24T09:36:31;16.90;93.70
55135;DHT22;41031;44.750;11.308;2023-04-24T09:39:09;16.90;93.80
55135;DHT22;41031;44.750;11.308;2023-04-24T09:41:57;16.90;93.90
55135;DHT22;41031;44.750;11.308;2023-04-24T09:44:26;16.90;94.00
55135;DHT22;41031;44.750;11.308;2023-04-24T09:46:57;17.00;94.10
55135;DHT22;41031;44.750;11.308;2023-04-24T09:49:33;17.00;94.20
55135;DHT22;41031;44.750;11.308;2023-04-24T09:52:11;17.10;94.30
55135;DHT22;41031;44.750;11.308;2023-04-24T09:54:39;17.30;94.40
55135;DHT22;41031;44.750;11.308;2023-04-24T09:57:09;17.40;94.30
55135;DHT22;41031;44.750;11.308;2023-04-24T09:59:42;17.50;94.30
55135;DHT22;41031;44.750;11.308;2023-04-24T10:02:20;17.60;94.30
55135;DHT22;41031;44.750;11.308;2023-04-24T10:04:55;17.80;94.30
55135;DHT22;41031;44.750;11.308;2023-04-24T10:07:25;18.00;94.20
55135;DHT22;41031;44.750;11.308;2023-04-24T10:09:53;18.20;94.10
55135;DHT22;41031;44.750;11.308;2023-04-24T10:12:21;18.50;94.20
55135;DHT22;41031;44.750;11.308;2023-04-24T10:14:49;18.90;93.60
55135;DHT22;41031;44.750;11.308;2023-04-24T10:17:17;19.20;93.10
55135;DHT22;41031;44.750;11.308;2023-04-24T10:19:45;19.60;92.20
55135;DHT22;41031;44.750;11.308;2023-04-24T10:22:14;20.00;91.50
55135;DHT22;41031;44.750;11.308;2023-04-24T10:24:44;20.30;90.70
55135;DHT22;41031;44.750;11.308;2023-04-24T10:27:13;20.50;89.80
55135;DHT22;41031;44.750;11.308;2023-04-24T10:29:43;20.60;88.70
55135;DHT22;41031;44.750;11.308;2023-04-24T10:32:11;20.80;87.50
55135;DHT22;41031;44.750;11.308;2023-04-24T10:34:38;20.90;86.60
55135;DHT22;41031;44.750;11.308;2023-04-24T10:37:05;21.10;86.40
55135;DHT22;41031;44.750;11.308;2023-04-24T10:39:32;21.30;85.90
55135;DHT22;41031;44.750;11.308;2023-04-24T10:42:00;21.50;84.70
55135;DHT22;41031;44.750;11.308;2023-04-24T10:44:36;21.70;82.80
55135;DHT22;41031;44.750;11.308;2023-04-24T10:47:03;21.80;81.30
55135;DHT22;41031;44.750;11.308;2023-04-24T10:49:31;21.80;79.70
55135;DHT22;41031;44.750;11.308;2023-04-24T10:52:03;21.90;79.20
55135;DHT22;41031;44.750;11.308;2023-04-24T10:59:47;22.10;78.40
55135;DHT22;41031;44.750;11.308;2023-04-24T11:02:15;22.10;79.10
55135;DHT22;41031;44.750;11.308;2023-04-24T11:04:43;22.30;79.50
55135;DHT22;41031;44.750;11.308;2023-04-24T11:07:11;22.40;79.50
55135;DHT22;41031;44.750;11.308;2023-04-24T11:09:38;22.60;77.20
55135;DHT22;41031;44.750;11.308;2023-04-24T11:12:09;22.60;76.30
55135;DHT22;41031;44.750;11.308;2023-04-24T11:17:38;22.70;78.10
55135;DHT22;41031;44.750;11.308;2023-04-24T11:20:17;22.90;77.80
55135;DHT22;41031;44.750;11.308;2023-04-24T11:22:54;23.00;77.40
55135;DHT22;41031;44.750;11.308;2023-04-24T11:25:22;23.10;76.60
55135;DHT22;41031;44.750;11.308;2023-04-24T11:27:49;23.20;75.00
55135;DHT22;41031;44.750;11.308;2023-04-24T11:30:19;23.30;73.90
55135;DHT22;41031;44.750;11.308;2023-04-24T11:32:51;23.40;74.90
55135;DHT22;41031;44.750;11.308;2023-04-24T11:35:20;23.30;74.40
55135;DHT22;41031;44.750;11.308;2023-04-24T11:37:49;23.30;74.50
55135;DHT22;41031;44.750;11.308;2023-04-24T11:40:21;23.50;74.50
55135;DHT22;41031;44.750;11.308;2023-04-24T11:42:51;23.50;73.80
55135;DHT22;41031;44.750;11.308;2023-04-24T11:47:50;23.60;75.60
55135;DHT22;41031;44.750;11.308;2023-04-24T11:50:18;23.80;74.50
55135;DHT22;41031;44.750;11.308;2023-04-24T11:52:47;23.80;72.80
55135;DHT22;41031;44.750;11.308;2023-04-24T11:57:49;23.50;70.80
55135;DHT22;41031;44.750;11.308;2023-04-24T12:02:46;23.10;74.00
55135;DHT22;41031;44.750;11.308;2023-04-24T12:05:27;22.90;74.10
55135;DHT22;41031;44.750;11.308;2023-04-24T12:07:54;22.90;74.60
55135;DHT22;41031;44.750;11.308;2023-04-24T12:10:22;23.00;74.70
55135;DHT22;41031;44.750;11.308;2023-04-24T12:12:50;23.20;73.90
55135;DHT22;41031;44.750;11.308;2023-04-24T12:15:19;23.40;73.80
55135;DHT22;41031;44.750;11.308;2023-04-24T12:17:47;23.60;72.00
55135;DHT22;41031;44.750;11.308;2023-04-24T12:20:15;23.80;71.10
55135;DHT22;41031;44.750;11.308;2023-04-24T12:22:49;23.90;71.60
55135;DHT22;41031;44.750;11.308;2023-04-24T12:25:18;24.10;71.00
55135;DHT22;41031;44.750;11.308;2023-04-24T12:27:46;24.30;68.60
55135;DHT22;41031;44.750;11.308;2023-04-24T12:30:16;24.30;68.20
55135;DHT22;41031;44.750;11.308;2023-04-24T12:32:45;24.30;68.80
55135;DHT22;41031;44.750;11.308;2023-04-24T12:35:13;24.40;68.40
55135;DHT22;41031;44.750;11.308;2023-04-24T12:37:42;24.40;68.50
55135;DHT22;41031;44.750;11.308;2023-04-24T12:40:13;24.30;68.50
55135;DHT22;41031;44.750;11.308;2023-04-24T12:42:45;24.30;68.20
55135;DHT22;41031;44.750;11.308;2023-04-24T12:45:13;24.20;67.30
55135;DHT22;41031;44.750;11.308;2023-04-24T12:47:41;24.20;66.70
55135;DHT22;41031;44.750;11.308;2023-04-24T12:50:11;24.20;67.50
55135;DHT22;41031;44.750;11.308;2023-04-24T12:52:39;24.30;68.10
55135;DHT22;41031;44.750;11.308;2023-04-24T12:55:07;24.50;67.40
55135;DHT22;41031;44.750;11.308;2023-04-24T12:57:39;24.60;66.60
55135;DHT22;41031;44.750;11.308;2023-04-24T13:00:07;24.80;66.30
55135;DHT22;41031;44.750;11.308;2023-04-24T13:02:34;25.00;66.20
55135;DHT22;41031;44.750;11.308;2023-04-24T13:05:02;25.00;65.00
55135;DHT22;41031;44.750;11.308;2023-04-24T13:07:29;25.00;64.50
55135;DHT22;41031;44.750;11.308;2023-04-24T13:09:56;24.90;64.50
55135;DHT22;41031;44.750;11.308;2023-04-24T13:12:26;24.80;64.40
55135;DHT22;41031;44.750;11.308;2023-04-24T13:14:54;24.60;64.50
55135;DHT22;41031;44.750;11.308;2023-04-24T13:17:21;24.60;63.60
55135;DHT22;41031;44.750;11.308;2023-04-24T13:19:49;24.50;64.20
55135;DHT22;41031;44.750;11.308;2023-04-24T13:22:17;24.50;63.80
55135;DHT22;41031;44.750;11.308;2023-04-24T13:24:47;24.60;63.40
55135;DHT22;41031;44.750;11.308;2023-04-24T13:27:17;24.60;63.50
55135;DHT22;41031;44.750;11.308;2023-04-24T13:29:45;24.50;63.90
55135;DHT22;41031;44.750;11.308;2023-04-24T13:32:12;24.60;64.10
55135;DHT22;41031;44.750;11.308;2023-04-24T13:34:39;24.70;61.60
55135;DHT22;41031;44.750;11.308;2023-04-24T13:37:06;24.70;62.20
55135;DHT22;41031;44.750;11.308;2023-04-24T13:39:34;24.80;63.00
55135;DHT22;41031;44.750;11.308;2023-04-24T13:42:02;24.90;64.10
55135;DHT22;41031;44.750;11.308;2023-04-24T13:44:31;24.90;62.10
55135;DHT22;41031;44.750;11.308;2023-04-24T13:46:58;24.80;59.40
55135;DHT22;41031;44.750;11.308;2023-04-24T13:49:26;24.60;59.90
55135;DHT22;41031;44.750;11.308;2023-04-24T13:51:54;24.20;60.50
55135;DHT22;41031;44.750;11.308;2023-04-24T13:54:22;23.90;62.10
55135;DHT22;41031;44.750;11.308;2023-04-24T13:56:51;23.80;62.80
55135;DHT22;41031;44.750;11.308;2023-04-24T13:59:19;23.80;62.00
55135;DHT22;41031;44.750;11.308;2023-04-24T14:01:47;23.80;62.90
55135;DHT22;41031;44.750;11.308;2023-04-24T14:04:15;23.80;63.80
55135;DHT22;41031;44.750;11.308;2023-04-24T14:06:43;23.90;63.30
55135;DHT22;41031;44.750;11.308;2023-04-24T14:09:10;24.00;62.30
55135;DHT22;41031;44.750;11.308;2023-04-24T14:11:37;24.10;62.60
55135;DHT22;41031;44.750;11.308;2023-04-24T14:14:04;24.20;62.60
55135;DHT22;41031;44.750;11.308;2023-04-24T14:16:32;24.30;61.30
55135;DHT22;41031;44.750;11.308;2023-04-24T14:18:59;24.40;59.30
55135;DHT22;41031;44.750;11.308;2023-04-24T14:21:26;24.40;59.80
55135;DHT22;41031;44.750;11.308;2023-04-24T14:23:53;24.40;60.30
55135;DHT22;41031;44.750;11.308;2023-04-24T14:26:20;24.30;59.80
55135;DHT22;41031;44.750;11.308;2023-04-24T14:28:47;24.10;59.90
55135;DHT22;41031;44.750;11.308;2023-04-24T14:31:14;23.90;60.90
55135;DHT22;41031;44.750;11.308;2023-04-24T14:33:41;23.70;62.20
55135;DHT22;41031;44.750;11.308;2023-04-24T14:36:08;23.60;62.80
55135;DHT22;41031;44.750;11.308;2023-04-24T14:38:35;23.50;62.50
55135;DHT22;41031;44.750;11.308;2023-04-24T14:41:03;23.60;61.70
55135;DHT22;41031;44.750;11.308;2023-04-24T14:43:39;23.70;61.20
55135;DHT22;41031;44.750;11.308;2023-04-24T14:46:07;23.80;61.00
55135;DHT22;41031;44.750;11.308;2023-04-24T14:48:34;23.90;60.20
55135;DHT22;41031;44.750;11.308;2023-04-24T14:51:01;23.90;59.40
55135;DHT22;41031;44.750;11.308;2023-04-24T14:53:28;24.00;59.50
55135;DHT22;41031;44.750;11.308;2023-04-24T14:55:55;24.00;59.60
55135;DHT22;41031;44.750;11.308;2023-04-24T14:58:22;24.00;59.40
55135;DHT22;41031;44.750;11.308;2023-04-24T15:00:49;24.00;59.00
55135;DHT22;41031;44.750;11.308;2023-04-24T15:03:21;24.00;58.50
55135;DHT22;41031;44.750;11.308;2023-04-24T15:05:49;24.00;58.90
55135;DHT22;41031;44.750;11.308;2023-04-24T15:08:17;24.00;59.30
55135;DHT22;41031;44.750;11.308;2023-04-24T15:10:44;24.00;58.90
55135;DHT22;41031;44.750;11.308;2023-04-24T15:13:11;24.00;59.30
55135;DHT22;41031;44.750;11.308;2023-04-24T15:15:39;24.00;60.00
55135;DHT22;41031;44.750;11.308;2023-04-24T15:18:08;24.00;59.40
55135;DHT22;41031;44.750;11.308;2023-04-24T15:20:35;24.10;58.10
55135;DHT22;41031;44.750;11.308;2023-04-24T15:23:05;24.00;58.20
55135;DHT22;41031;44.750;11.308;2023-04-24T15:25:32;24.10;58.50
55135;DHT22;41031;44.750;11.308;2023-04-24T15:27:59;24.10;58.50
55135;DHT22;41031;44.750;11.308;2023-04-24T15:30:29;24.10;57.90
55135;DHT22;41031;44.750;11.308;2023-04-24T15:32:56;24.00;57.40
55135;DHT22;41031;44.750;11.308;2023-04-24T15:35:23;24.00;58.20
55135;DHT22;41031;44.750;11.308;2023-04-24T15:37:50;23.90;57.50
55135;DHT22;41031;44.750;11.308;2023-04-24T15:40:17;23.90;57.30
55135;DHT22;41031;44.750;11.308;2023-04-24T15:42:45;23.80;58.80